Terminal Aerodrome Forecast
Issued by NWS

Home | Current Version | Previous Version | Text Only | Print | Product List | Glossary On
Versions: 1 2 3 4 5 6 7 8 9 10 11 12 13 14 15 16 17 18 19 20 21 22 23 24 25 26 27 28 29 30
996
FTUS46 KPDT 211938 AAB
TAFRDM
TAF AMD
KRDM 211938Z 2120/2218 34006KT P6SM SCT014 BKN035
      TEMPO 2120/2121 BKN014 OVC035
     FM212100 34007KT P6SM SCT040 BKN200
     FM220300 32005KT P6SM VCSH SCT028 OVC040
     FM221000 30005KT 2SM -SN BR BKN007 OVC011=

USA.gov is the U.S. government's official web portal to all federal, state and local government web resources and services.